Aviation Digital Data Service (ADDS)

Output produced by METARs form (1833 UTC 19 August 2019)
found at http://www.aviationweather.gov/metar/data/
 
METAR text: DNKN 191800Z 21006KT 9999 SCT010 FEW018CB 25/22 Q1013 NOSIG
Conditions at: DNKN (KANO/MALLAM AMIN, NG) observed 1800 UTC 19 August 2019
Temperature: 25.0°C (77°F)
Dewpoint: 22.0°C (72°F) [RH = 83%]
Pressure (altimeter): 29.91 inches Hg (1013.0 mb)
Winds: from the SSW (210 degrees) at 7 MPH (6 knots; 3.1 m/s)
Visibility: 6 or more miles (10+ km)
Ceiling: at least 12,000 feet AGL
Clouds: scattered clouds at 1000 feet AGL
few clouds at 1800 feet AGL
Weather: no significant weather observed at this time

METAR text: DNKN 191700Z 21009KT 9999 SCT010 FEW018CB 26/21 Q1013 N0SIG
Conditions at: DNKN (KANO/MALLAM AMIN, NG) observed 1700 UTC 19 August 2019
Temperature: 26.0°C (79°F)
Dewpoint: 21.0°C (70°F) [RH = 74%]
Pressure (altimeter): 29.91 inches Hg (1013.0 mb)
Winds: from the SSW (210 degrees) at 10 MPH (9 knots; 4.6 m/s)
Visibility: 6 or more miles (10+ km)
Ceiling: at least 12,000 feet AGL
Clouds: scattered clouds at 1000 feet AGL
few clouds at 1800 feet AGL
Weather: no significant weather observed at this time

METAR text: DNKN 191500Z 23010KT 9999 FEW010 FEW018CB 28/23 Q1013 NOSIG
Conditions at: DNKN (KANO/MALLAM AMIN, NG) observed 1500 UTC 19 August 2019
Temperature: 28.0°C (82°F)
Dewpoint: 23.0°C (73°F) [RH = 74%]
Pressure (altimeter): 29.91 inches Hg (1013.0 mb)
Winds: from the SW (230 degrees) at 12 MPH (10 knots; 5.1 m/s)
Visibility: 6 or more miles (10+ km)
Ceiling: at least 12,000 feet AGL
Clouds: few clouds at 1000 feet AGL
few clouds at 1800 feet AGL
Weather: no significant weather observed at this time

METAR text: DNKN 191400Z 19009KT 9999 FEW010 FEW018CB 27/22 Q1013 NOSIG
Conditions at: DNKN (KANO/MALLAM AMIN, NG) observed 1400 UTC 19 August 2019
Temperature: 27.0°C (81°F)
Dewpoint: 22.0°C (72°F) [RH = 74%]
Pressure (altimeter): 29.91 inches Hg (1013.0 mb)
Winds: from the S (190 degrees) at 10 MPH (9 knots; 4.6 m/s)
Visibility: 6 or more miles (10+ km)
Ceiling: at least 12,000 feet AGL
Clouds: few clouds at 1000 feet AGL
few clouds at 1800 feet AGL
Weather: no significant weather observed at this time

METAR text: DNKN 191100Z 18005KT CAVOK 28/21 Q1014 NOSIG
Conditions at: DNKN (KANO/MALLAM AMIN, NG) observed 1100 UTC 19 August 2019
Temperature: 28.0°C (82°F)
Dewpoint: 21.0°C (70°F) [RH = 66%]
Pressure (altimeter): 29.94 inches Hg (1014.0 mb)
Winds: from the S (180 degrees) at 6 MPH (5 knots; 2.6 m/s)
Visibility: 6 or more miles (10+ km)
Ceiling: ceiling and visibility are OK
Clouds: unknown
Weather: no significant weather observed at this time

METAR text: DNKN 190600Z 28004KT 9999 TSRA BKN010 FEW019CB 21/20 Q1014 NOSIG
Conditions at: DNKN (KANO/MALLAM AMIN, NG) observed 0600 UTC 19 August 2019
Temperature: 21.0°C (70°F)
Dewpoint: 20.0°C (68°F) [RH = 94%]
Pressure (altimeter): 29.94 inches Hg (1014.0 mb)
Winds: from the W (280 degrees) at 5 MPH (4 knots; 2.1 m/s)
Visibility: 6 or more miles (10+ km)
Ceiling: 1000 feet AGL
Clouds: broken clouds at 1000 feet AGL
few clouds at 1900 feet AGL
Weather: TSRA  (rain associated with thunderstorm(s))

METAR text: DNKN 190500Z 23004KT 9999 TSRA BKN010 FEW019CB 21/20 Q1015 NOSIG
Conditions at: DNKN (KANO/MALLAM AMIN, NG) observed 0500 UTC 19 August 2019
Temperature: 21.0°C (70°F)
Dewpoint: 20.0°C (68°F) [RH = 94%]
Pressure (altimeter): 29.97 inches Hg (1015.0 mb)
Winds: from the SW (230 degrees) at 5 MPH (4 knots; 2.1 m/s)
Visibility: 6 or more miles (10+ km)
Ceiling: 1000 feet AGL
Clouds: broken clouds at 1000 feet AGL
few clouds at 1900 feet AGL
Weather: TSRA  (rain associated with thunderstorm(s))

METAR text: DNKN 190400Z 21004KT 9999 TSRA BKN010 FEW019CB 21/21 Q1015 NOSIG
Conditions at: DNKN (KANO/MALLAM AMIN, NG) observed 0400 UTC 19 August 2019
Temperature: 21.0°C (70°F)
Dewpoint: 21.0°C (70°F) [RH = 100%]
Pressure (altimeter): 29.97 inches Hg (1015.0 mb)
Winds: from the SSW (210 degrees) at 5 MPH (4 knots; 2.1 m/s)
Visibility: 6 or more miles (10+ km)
Ceiling: 1000 feet AGL
Clouds: broken clouds at 1000 feet AGL
few clouds at 1900 feet AGL
Weather: TSRA  (rain associated with thunderstorm(s))

METAR text: DNKN 190300Z 15003KT 9999 TSRA BKN010 FEW019CB 21/21 Q1015 NOSIG
Conditions at: DNKN (KANO/MALLAM AMIN, NG) observed 0300 UTC 19 August 2019
Temperature: 21.0°C (70°F)
Dewpoint: 21.0°C (70°F) [RH = 100%]
Pressure (altimeter): 29.97 inches Hg (1015.0 mb)
Winds: from the SSE (150 degrees) at 3 MPH (3 knots; 1.5 m/s)
Visibility: 6 or more miles (10+ km)
Ceiling: 1000 feet AGL
Clouds: broken clouds at 1000 feet AGL
few clouds at 1900 feet AGL
Weather: TSRA  (rain associated with thunderstorm(s))

METAR text: DNKN 190200Z 05006KT 9999 TSRA BKN010 FEW019CB 25/23 Q1014 NOSIG
Conditions at: DNKN (KANO/MALLAM AMIN, NG) observed 0200 UTC 19 August 2019
Temperature: 25.0°C (77°F)
Dewpoint: 23.0°C (73°F) [RH = 89%]
Pressure (altimeter): 29.94 inches Hg (1014.0 mb)
Winds: from the NE (50 degrees) at 7 MPH (6 knots; 3.1 m/s)
Visibility: 6 or more miles (10+ km)
Ceiling: 1000 feet AGL
Clouds: broken clouds at 1000 feet AGL
few clouds at 1900 feet AGL
Weather: TSRA  (rain associated with thunderstorm(s))

METAR text: DNKN 190100Z 06010KT 7000 TSRA BKN010 FEW019CB 25/23 Q1015 NOSIG
Conditions at: DNKN (KANO/MALLAM AMIN, NG) observed 0100 UTC 19 August 2019
Temperature: 25.0°C (77°F)
Dewpoint: 23.0°C (73°F) [RH = 89%]
Pressure (altimeter): 29.97 inches Hg (1015.0 mb)
Winds: from the ENE (60 degrees) at 12 MPH (10 knots; 5.1 m/s)
Visibility: 4 miles ( 7 km)
Ceiling: 1000 feet AGL
Clouds: broken clouds at 1000 feet AGL
few clouds at 1900 feet AGL
Weather: TSRA  (rain associated with thunderstorm(s))

METAR text: DNKN 190000Z 21003KT 9999 TS BKN010 FEW019CB 25/23 Q1014 NOSIG
Conditions at: DNKN (KANO/MALLAM AMIN, NG) observed 0000 UTC 19 August 2019
Temperature: 25.0°C (77°F)
Dewpoint: 23.0°C (73°F) [RH = 89%]
Pressure (altimeter): 29.94 inches Hg (1014.0 mb)
Winds: from the SSW (210 degrees) at 3 MPH (3 knots; 1.5 m/s)
Visibility: 6 or more miles (10+ km)
Ceiling: 1000 feet AGL
Clouds: broken clouds at 1000 feet AGL
few clouds at 1900 feet AGL
Weather: TS  (thunderstorm)

METAR text: DNKN 182300Z 21003KT 9999 TS BKN010 FEW019CB 25/23 Q1014 NOSIG
Conditions at: DNKN (KANO/MALLAM AMIN, NG) observed 2300 UTC 18 August 2019
Temperature: 25.0°C (77°F)
Dewpoint: 23.0°C (73°F) [RH = 89%]
Pressure (altimeter): 29.94 inches Hg (1014.0 mb)
Winds: from the SSW (210 degrees) at 3 MPH (3 knots; 1.5 m/s)
Visibility: 6 or more miles (10+ km)
Ceiling: 1000 feet AGL
Clouds: broken clouds at 1000 feet AGL
few clouds at 1900 feet AGL
Weather: TS  (thunderstorm)

METAR text: DNKN 182200Z 23005KT 9999 TS BKN010 FEW019CB 25/23 Q1014 NOSIG
Conditions at: DNKN (KANO/MALLAM AMIN, NG) observed 2200 UTC 18 August 2019
Temperature: 25.0°C (77°F)
Dewpoint: 23.0°C (73°F) [RH = 89%]
Pressure (altimeter): 29.94 inches Hg (1014.0 mb)
Winds: from the SW (230 degrees) at 6 MPH (5 knots; 2.6 m/s)
Visibility: 6 or more miles (10+ km)
Ceiling: 1000 feet AGL
Clouds: broken clouds at 1000 feet AGL
few clouds at 1900 feet AGL
Weather: TS  (thunderstorm)

METAR text: DNKN 182100Z 30003KT 9999 TS BKN010 FEW019CB 25/22 Q1014 NOSIG
Conditions at: DNKN (KANO/MALLAM AMIN, NG) observed 2100 UTC 18 August 2019
Temperature: 25.0°C (77°F)
Dewpoint: 22.0°C (72°F) [RH = 83%]
Pressure (altimeter): 29.94 inches Hg (1014.0 mb)
Winds: from the WNW (300 degrees) at 3 MPH (3 knots; 1.5 m/s)
Visibility: 6 or more miles (10+ km)
Ceiling: 1000 feet AGL
Clouds: broken clouds at 1000 feet AGL
few clouds at 1900 feet AGL
Weather: TS  (thunderstorm)

METAR text: DNKN 182000Z 23006KT 9999 TS BKN011 FEW019CB 27/23 Q1014 NOSIG
Conditions at: DNKN (KANO/MALLAM AMIN, NG) observed 2000 UTC 18 August 2019
Temperature: 27.0°C (81°F)
Dewpoint: 23.0°C (73°F) [RH = 79%]
Pressure (altimeter): 29.94 inches Hg (1014.0 mb)
Winds: from the SW (230 degrees) at 7 MPH (6 knots; 3.1 m/s)
Visibility: 6 or more miles (10+ km)
Ceiling: 1100 feet AGL
Clouds: broken clouds at 1100 feet AGL
few clouds at 1900 feet AGL
Weather: TS  (thunderstorm)

METAR text: DNKN 181900Z 26003KT 9999 TS BKN011 FEW019CB 27/24 Q1013 NOSIG
Conditions at: DNKN (KANO/MALLAM AMIN, NG) observed 1900 UTC 18 August 2019
Temperature: 27.0°C (81°F)
Dewpoint: 24.0°C (75°F) [RH = 84%]
Pressure (altimeter): 29.91 inches Hg (1013.0 mb)
Winds: from the W (260 degrees) at 3 MPH (3 knots; 1.5 m/s)
Visibility: 6 or more miles (10+ km)
Ceiling: 1100 feet AGL
Clouds: broken clouds at 1100 feet AGL
few clouds at 1900 feet AGL
Weather: TS  (thunderstorm)

METAR text: DNKN 181800Z 30005KT 9999 SCT011 FEW019CB 27/23 Q1012 NOSIG
Conditions at: DNKN (KANO/MALLAM AMIN, NG) observed 1800 UTC 18 August 2019
Temperature: 27.0°C (81°F)
Dewpoint: 23.0°C (73°F) [RH = 79%]
Pressure (altimeter): 29.88 inches Hg (1012.0 mb)
Winds: from the WNW (300 degrees) at 6 MPH (5 knots; 2.6 m/s)
Visibility: 6 or more miles (10+ km)
Ceiling: at least 12,000 feet AGL
Clouds: scattered clouds at 1100 feet AGL
few clouds at 1900 feet AGL
Weather: no significant weather observed at this time

METAR text: DNKN 181700Z 32007KT SCY012 29/22 Q1011 NOSIG
Conditions at: DNKN (KANO/MALLAM AMIN, NG) observed 1700 UTC 18 August 2019
Temperature: 29.0°C (84°F)
Dewpoint: 22.0°C (72°F) [RH = 66%]
Pressure (altimeter): 29.85 inches Hg (1011.0 mb)
Winds: from the NW (320 degrees) at 8 MPH (7 knots; 3.6 m/s)
Visibility: missing
Ceiling: unknown
Clouds: missing
Weather: no significant weather observed at this time

METAR text: DNKN 181600Z 26007KT 9999 SCT012 30/22 Q1011 NOSIG
Conditions at: DNKN (KANO/MALLAM AMIN, NG) observed 1600 UTC 18 August 2019
Temperature: 30.0°C (86°F)
Dewpoint: 22.0°C (72°F) [RH = 62%]
Pressure (altimeter): 29.85 inches Hg (1011.0 mb)
Winds: from the W (260 degrees) at 8 MPH (7 knots; 3.6 m/s)
Visibility: 6 or more miles (10+ km)
Ceiling: at least 12,000 feet AGL
Clouds: scattered clouds at 1200 feet AGL
Weather: no significant weather observed at this time

METAR text: DNKN 181500Z 28006KT 9999 SCT012 30/22 Q1012 NOSIG
Conditions at: DNKN (KANO/MALLAM AMIN, NG) observed 1500 UTC 18 August 2019
Temperature: 30.0°C (86°F)
Dewpoint: 22.0°C (72°F) [RH = 62%]
Pressure (altimeter): 29.88 inches Hg (1012.0 mb)
Winds: from the W (280 degrees) at 7 MPH (6 knots; 3.1 m/s)
Visibility: 6 or more miles (10+ km)
Ceiling: at least 12,000 feet AGL
Clouds: scattered clouds at 1200 feet AGL
Weather: no significant weather observed at this time

METAR text: DNKN 181400Z 29003KT 9999 SCT012 30/22 Q1013 NOSIG
Conditions at: DNKN (KANO/MALLAM AMIN, NG) observed 1400 UTC 18 August 2019
Temperature: 30.0°C (86°F)
Dewpoint: 22.0°C (72°F) [RH = 62%]
Pressure (altimeter): 29.91 inches Hg (1013.0 mb)
Winds: from the WNW (290 degrees) at 3 MPH (3 knots; 1.5 m/s)
Visibility: 6 or more miles (10+ km)
Ceiling: at least 12,000 feet AGL
Clouds: scattered clouds at 1200 feet AGL
Weather: no significant weather observed at this time

METAR text: DNKN 181300Z 29003KT SCT012 30/22 Q1015 NOSIG
Conditions at: DNKN (KANO/MALLAM AMIN, NG) observed 1300 UTC 18 August 2019
Temperature: 30.0°C (86°F)
Dewpoint: 22.0°C (72°F) [RH = 62%]
Pressure (altimeter): 29.97 inches Hg (1015.0 mb)
Winds: from the WNW (290 degrees) at 3 MPH (3 knots; 1.5 m/s)
Visibility: missing
Ceiling: at least 12,000 feet AGL
Clouds: scattered clouds at 1200 feet AGL
Weather: no significant weather observed at this time

METAR text: DNKN 181200Z 25003KT 9999 FEW011 29/23 Q1015 NOSIG
Conditions at: DNKN (KANO/MALLAM AMIN, NG) observed 1200 UTC 18 August 2019
Temperature: 29.0°C (84°F)
Dewpoint: 23.0°C (73°F) [RH = 70%]
Pressure (altimeter): 29.97 inches Hg (1015.0 mb)
Winds: from the WSW (250 degrees) at 3 MPH (3 knots; 1.5 m/s)
Visibility: 6 or more miles (10+ km)
Ceiling: at least 12,000 feet AGL
Clouds: few clouds at 1100 feet AGL
Weather: no significant weather observed at this time

METAR text: DNKN 181100Z 26005KT CAVOK 29/23 Q1015 NOSIG
Conditions at: DNKN (KANO/MALLAM AMIN, NG) observed 1100 UTC 18 August 2019
Temperature: 29.0°C (84°F)
Dewpoint: 23.0°C (73°F) [RH = 70%]
Pressure (altimeter): 29.97 inches Hg (1015.0 mb)
Winds: from the W (260 degrees) at 6 MPH (5 knots; 2.6 m/s)
Visibility: 6 or more miles (10+ km)
Ceiling: ceiling and visibility are OK
Clouds: unknown
Weather: no significant weather observed at this time

METAR text: DNKN 181000Z 27005KT CAVOK 28/22 Q1015 NOSIG
Conditions at: DNKN (KANO/MALLAM AMIN, NG) observed 1000 UTC 18 August 2019
Temperature: 28.0°C (82°F)
Dewpoint: 22.0°C (72°F) [RH = 70%]
Pressure (altimeter): 29.97 inches Hg (1015.0 mb)
Winds: from the W (270 degrees) at 6 MPH (5 knots; 2.6 m/s)
Visibility: 6 or more miles (10+ km)
Ceiling: ceiling and visibility are OK
Clouds: unknown
Weather: no significant weather observed at this time

METAR text: DNKN 180900Z 23005KT CAVOK 26/22 Q1015 NOSIG
Conditions at: DNKN (KANO/MALLAM AMIN, NG) observed 0900 UTC 18 August 2019
Temperature: 26.0°C (79°F)
Dewpoint: 22.0°C (72°F) [RH = 79%]
Pressure (altimeter): 29.97 inches Hg (1015.0 mb)
Winds: from the SW (230 degrees) at 6 MPH (5 knots; 2.6 m/s)
Visibility: 6 or more miles (10+ km)
Ceiling: ceiling and visibility are OK
Clouds: unknown
Weather: no significant weather observed at this time

METAR text: DNKN 180800Z 20007KT CAVOK 24/21 Q1015 NOSIG
Conditions at: DNKN (KANO/MALLAM AMIN, NG) observed 0800 UTC 18 August 2019
Temperature: 24.0°C (75°F)
Dewpoint: 21.0°C (70°F) [RH = 83%]
Pressure (altimeter): 29.97 inches Hg (1015.0 mb)
Winds: from the SSW (200 degrees) at 8 MPH (7 knots; 3.6 m/s)
Visibility: 6 or more miles (10+ km)
Ceiling: ceiling and visibility are OK
Clouds: unknown
Weather: no significant weather observed at this time

METAR text: DNKN 180700Z 23006KT 9999 FEW030 FEW019CB 22/21 Q1015 NOSIG
Conditions at: DNKN (KANO/MALLAM AMIN, NG) observed 0700 UTC 18 August 2019
Temperature: 22.0°C (72°F)
Dewpoint: 21.0°C (70°F) [RH = 94%]
Pressure (altimeter): 29.97 inches Hg (1015.0 mb)
Winds: from the SW (230 degrees) at 7 MPH (6 knots; 3.1 m/s)
Visibility: 6 or more miles (10+ km)
Ceiling: at least 12,000 feet AGL
Clouds: few clouds at 3000 feet AGL
few clouds at 1900 feet AGL
Weather: no significant weather observed at this time